This is the latest recevied weather packets stored in our database for station/object SQ5RTW-1. If no packets are shown the sender has not sent any weather packets the latest 10 day(s).
| Time | Temp. | Humidity | Pressure | Rain* | Wind** | Luminosity | Snow |
|---|---|---|---|---|---|---|---|
| 1777389699 | 14.44° C | 26% | 1026 hPa | - | - | - | - |
| 1777388799 | 20° C | 21% | 1026.3 hPa | - | - | - | - |
| 1777387898 | 14.44° C | 26% | 1026.2 hPa | - | - | - | - |
| 1777386997 | 18.33° C | 21% | 1026.4 hPa | - | - | - | - |
| 1777386096 | 23.89° C | 18% | 1026.9 hPa | - | - | - | - |
| 1777385195 | 22.22° C | 20% | 1027.1 hPa | - | - | - | - |
| 1777384294 | 12.22° C | 32% | 1026.6 hPa | - | - | - | - |
| 1777383393 | 14.44° C | 33% | 1026.7 hPa | - | - | - | - |
| 1777381056 | 15° C | 31% | 1026.9 hPa | - | - | - | - |
| 1777381039 | 16.11° C | 31% | 1026.8 hPa | - | - | - | - |
| 1777381014 | 13.89° C | 30% | 1026.9 hPa | - | - | - | - |
| 1777380113 | 12.78° C | 31% | 1026.9 hPa | - | - | - | - |
| 1777379212 | 14.44° C | 29% | 1027.1 hPa | - | - | - | - |
| 1777378312 | 13.89° C | 31% | 1026.9 hPa | - | - | - | - |
| 1777378295 | 14.44° C | 32% | 1027 hPa | - | - | - | - |
| 1777378270 | 12.22° C | 31% | 1027 hPa | - | - | - | - |
| 1777377369 | 15.56° C | 27% | 1027.1 hPa | - | - | - | - |
| 1777376468 | 14.44° C | 29% | 1027.2 hPa | - | - | - | - |
| 1777375568 | 13.89° C | 31% | 1027.2 hPa | - | - | - | - |
| 1777374666 | 13.33° C | 30% | 1027.3 hPa | - | - | - | - |
| 1777373765 | 14.44° C | 31% | 1027.3 hPa | - | - | - | - |
| 1777373749 | 15.56° C | 32% | 1027.3 hPa | - | - | - | - |
| 1777373724 | 12.78° C | 31% | 1027.3 hPa | - | - | - | - |
| 1777372823 | 12.22° C | 32% | 1027.3 hPa | - | - | - | - |
| 1777371922 | 16.11° C | 27% | 1027.4 hPa | - | - | - | - |
* Rain since midnight (hover to see other rain measurements)
** Current wind speed in m/s (hover to see current wind gust speed)